Terminal Aerodrome Forecast
Issued by NWS

Current Version | Previous Version | Text Only | Print | Product List | Glossary Off
Versions: 1 2 3 4 5 6 7 8 9 10 11 12 13 14 15

000
FTUS41 KILN 170900 AAB
TAFLCK
TAF AMD
KLCK 170924Z 1709/1806 26014G19KT P6SM VCSH OVC014
      TEMPO 1710/1712 3SM BR
     FM171400 27013G20KT P6SM OVC015
     FM172200 27010KT P6SM OVC018=

USA.gov is the U.S. government's official web portal to all federal, state and local government web resources and services.